CheckWX is a tool to help pilots better visualize weather data.  It is not intended as a substitute for an official pre-flight weather briefing.

15:04:54 UTC

KPMV METAR
Plattsmouth Municipal Airport
Plattsmouth, Nebraska, USA
Current

10 mins ago

KPMV 231455Z AUTO 00000KT 10SM BKN075 OVC090 14/09 A3014 RMK AO2 T01390090
Observed
May-23 @ 14:55 UTC
Visibility
10 SM
Flight Rules
VFR
Cloud Levels
  • Broken at 7,500' AGL
  • Overcast at 9,000' AGL
Temperature
14°C / 57°F
Dewpoint
C / 48°F
Humidity
72%
Altimeter
30.14" Hg
Pressure
1020.62 hPa
Previous

30 mins ago

KPMV 231435Z AUTO 32003KT 10SM SCT075 BKN090 BKN110 14/09 A3014 RMK AO2 LTG DSNT S T01380093
Observed
May-23 @ 14:35 UTC
Wind
  • 320° at 3 KTS
Visibility
10 SM
Flight Rules
VFR
Cloud Levels
  • Scattered at 7,500' AGL
  • Broken at 9,000' AGL
  • Broken at 11,000' AGL
Temperature
14°C / 57°F
Dewpoint
C / 48°F
Humidity
72%
Altimeter
30.14" Hg
Pressure
1020.62 hPa
Previous

50 mins ago

KPMV 231415Z AUTO 34004KT 10SM SCT080 BKN110 13/09 A3013 RMK AO2 T01340091
Observed
May-23 @ 14:15 UTC
Wind
  • 340° at 4 KTS
Visibility
10 SM
Flight Rules
VFR
Cloud Levels
  • Scattered at 8,000' AGL
  • Broken at 11,000' AGL
Temperature
13°C / 55°F
Dewpoint
C / 48°F
Humidity
77%
Altimeter
30.13" Hg
Pressure
1020.32 hPa